Time;durP1;ratioP1;P1;durP2;ratioP2;P2;SDS_P1;SDS_P2;PMS_P1;PMS_P2;Temp;Humidity;BMP_temperature;BMP_pressure;BME280_temperature;BME280_humidity;BME280_pressure;Samples;Min_cycle;Max_cycle;Signal;HPM_P1;HPM_P2
2023/05/25 00:00:23;;;;;;;0.00;0.00;;;11.70;99.90;;;;;;7400549;19;19923;-79
2023/05/25 00:02:56;;;;;;;0.00;0.00;;;11.50;99.90;;;;;;7399260;19;19994;-79
2023/05/25 00:05:26;;;;;;;0.00;0.00;;;11.60;99.90;;;;;;7400493;19;19930;-79
2023/05/25 00:07:55;;;;;;;0.00;0.00;;;11.60;99.90;;;;;;7400181;19;19926;-80
2023/05/25 00:10:24;;;;;;;0.00;0.00;;;11.40;99.90;;;;;;7402895;19;19918;-79
2023/05/25 00:12:55;;;;;;;0.00;0.00;;;11.50;99.90;;;;;;7407355;19;19923;-79
2023/05/25 00:15:25;;;;;;;0.00;0.00;;;11.60;99.90;;;;;;7405747;19;19914;-79
2023/05/25 00:17:56;;;;;;;0.00;0.00;;;11.40;99.90;;;;;;7405163;19;19925;-79
2023/05/25 00:20:25;;;;;;;0.00;0.00;;;11.60;99.90;;;;;;7401955;19;19926;-78
2023/05/25 00:22:55;;;;;;;0.00;0.00;;;11.40;99.90;;;;;;7404579;19;19922;-78
2023/05/25 00:25:24;;;;;;;0.00;0.00;;;11.30;99.90;;;;;;7404665;19;19975;-78
2023/05/25 00:27:53;;;;;;;0.22;0.22;;;11.40;99.90;;;;;;7404362;19;19982;-78
2023/05/25 00:30:22;;;;;;;0.00;0.00;;;11.50;99.90;;;;;;7404960;19;19918;-78
2023/05/25 00:32:52;;;;;;;0.08;0.08;;;11.40;99.90;;;;;;7405988;19;20305;-78
2023/05/25 00:35:24;;;;;;;0.00;0.00;;;11.40;99.90;;;;;;7405661;19;20015;-78
2023/05/25 00:37:53;;;;;;;;;;;11.50;99.90;;;;;;7407046;19;19922;-78
2023/05/25 00:40:23;;;;;;;0.00;0.00;;;11.30;99.90;;;;;;7405917;19;19938;-78
2023/05/25 00:42:53;;;;;;;0.55;0.55;;;11.30;99.90;;;;;;7404596;19;19922;-78
2023/05/25 00:45:22;;;;;;;0.05;0.05;;;11.40;99.90;;;;;;7401637;19;20321;-78
2023/05/25 00:47:53;;;;;;;0.00;0.00;;;11.30;99.90;;;;;;7403399;19;19943;-78
2023/05/25 00:50:38;;;;;;;0.20;0.15;;;11.20;99.90;;;;;;7404054;19;19982;-79
2023/05/25 00:53:08;;;;;;;0.00;0.00;;;11.20;99.90;;;;;;7404285;19;19918;-79
2023/05/25 00:55:41;;;;;;;0.00;0.00;;;11.30;99.90;;;;;;7405639;19;19939;-78
2023/05/25 00:58:11;;;;;;;0.15;0.10;;;11.20;99.90;;;;;;7406231;19;19942;-79
2023/05/25 01:00:44;;;;;;;0.17;0.17;;;11.20;99.90;;;;;;7404885;19;19918;-78
2023/05/25 01:03:20;;;;;;;0.00;0.00;;;11.20;99.90;;;;;;7404499;19;19929;-79
2023/05/25 01:05:52;;;;;;;0.00;0.00;;;11.10;99.90;;;;;;7405236;19;19940;-79
2023/05/25 01:08:24;;;;;;;0.00;0.00;;;11.00;99.90;;;;;;7405083;19;19957;-78
2023/05/25 01:10:54;;;;;;;0.00;0.00;;;11.00;99.90;;;;;;7404829;19;19914;-79
2023/05/25 01:13:23;;;;;;;0.00;0.00;;;11.10;99.90;;;;;;7404571;19;20560;-79
2023/05/25 01:15:53;;;;;;;1.67;0.70;;;11.00;99.90;;;;;;7403754;19;19990;-79
2023/05/25 01:18:22;;;;;;;2.42;0.30;;;11.00;99.90;;;;;;7403447;19;20380;-79
2023/05/25 01:21:12;;;;;;;0.00;0.00;;;10.90;99.90;;;;;;7400352;19;20410;-79
2023/05/25 01:24:00;;;;;;;0.00;0.00;;;10.80;99.90;;;;;;7401705;19;20343;-78
2023/05/25 01:26:33;;;;;;;0.00;0.00;;;10.90;99.90;;;;;;7402096;19;19922;-77
2023/05/25 01:29:05;;;;;;;0.00;0.00;;;10.70;99.90;;;;;;7401752;19;19922;-79
2023/05/25 01:31:36;;;;;;;0.00;0.00;;;10.80;99.90;;;;;;7403857;19;20349;-78
2023/05/25 01:34:07;;;;;;;0.00;0.00;;;10.70;99.90;;;;;;7401437;19;20010;-78
2023/05/25 01:36:38;;;;;;;0.28;0.28;;;10.70;99.90;;;;;;7400974;19;19927;-78
2023/05/25 01:39:09;;;;;;;0.03;0.03;;;10.70;99.90;;;;;;7403752;19;19946;-78
2023/05/25 01:41:38;;;;;;;0.00;0.00;;;10.70;99.90;;;;;;7404251;19;19943;-78
2023/05/25 01:44:09;;;;;;;0.35;0.35;;;10.80;99.90;;;;;;7401524;19;19915;-78
2023/05/25 01:46:40;;;;;;;0.28;0.28;;;10.70;99.90;;;;;;7403955;19;19929;-78
2023/05/25 01:49:18;;;;;;;0.10;0.10;;;10.60;99.90;;;;;;7403470;19;19933;-78
2023/05/25 01:51:58;;;;;;;0.00;0.00;;;10.80;99.90;;;;;;7404288;19;19944;-78
2023/05/25 01:54:33;;;;;;;0.77;0.77;;;10.70;99.90;;;;;;7404015;19;19919;-78
2023/05/25 01:57:04;;;;;;;0.00;0.00;;;10.80;99.90;;;;;;7404631;19;19923;-78
2023/05/25 01:59:34;;;;;;;0.00;0.00;;;10.60;99.90;;;;;;7407537;19;20390;-78
2023/05/25 02:02:04;;;;;;;0.00;0.00;;;10.60;99.90;;;;;;7402798;19;19928;-78
2023/05/25 02:04:33;;;;;;;0.00;0.00;;;10.70;99.90;;;;;;7402123;19;19918;-78
2023/05/25 02:07:05;;;;;;;0.00;0.00;;;10.60;99.90;;;;;;7403383;19;19943;-78
2023/05/25 02:09:34;;;;;;;0.00;0.00;;;10.50;99.90;;;;;;7403361;19;19933;-78
2023/05/25 02:12:03;;;;;;;0.90;0.63;;;10.70;99.90;;;;;;7404194;19;19997;-79
2023/05/25 02:14:32;;;;;;;0.00;0.00;;;10.40;99.90;;;;;;7402573;19;19986;-78
2023/05/25 02:17:02;;;;;;;0.03;0.03;;;10.60;99.90;;;;;;7404703;19;19915;-78
2023/05/25 02:19:31;;;;;;;0.43;0.43;;;10.50;99.90;;;;;;7403413;19;19918;-78
2023/05/25 02:22:00;;;;;;;0.15;0.15;;;10.40;99.90;;;;;;7402222;19;19929;-78
2023/05/25 02:24:33;;;;;;;0.00;0.00;;;10.30;99.90;;;;;;7400159;19;19956;-78
2023/05/25 02:27:03;;;;;;;0.00;0.00;;;10.40;99.90;;;;;;7401822;19;19951;-78
2023/05/25 02:29:32;;;;;;;0.08;0.08;;;10.60;99.90;;;;;;7398142;19;19919;-78
2023/05/25 02:32:01;;;;;;;0.10;0.10;;;10.40;99.90;;;;;;7400882;19;19932;-77
2023/05/25 02:34:30;;;;;;;0.00;0.00;;;10.40;99.90;;;;;;7401656;19;20018;-78
2023/05/25 02:36:58;;;;;;;0.00;0.00;;;10.40;99.90;;;;;;7401914;19;19978;-78
2023/05/25 02:39:27;;;;;;;0.95;0.75;;;10.40;99.90;;;;;;7401407;19;19922;-78
2023/05/25 02:42:00;;;;;;;0.00;0.00;;;10.30;99.90;;;;;;7400118;19;20305;-78
2023/05/25 02:44:29;;;;;;;0.00;0.00;;;10.30;99.90;;;;;;7400462;19;19933;-78
2023/05/25 02:46:58;;;;;;;0.00;0.00;;;10.30;99.90;;;;;;7401084;19;19978;-78
2023/05/25 02:49:28;;;;;;;0.00;0.00;;;10.30;99.90;;;;;;7400836;19;19947;-78
2023/05/25 02:51:57;;;;;;;0.00;0.00;;;10.40;99.90;;;;;;7397799;19;19922;-78
2023/05/25 02:54:26;;;;;;;0.00;0.00;;;10.30;99.90;;;;;;7399611;19;19997;-78
2023/05/25 02:56:58;;;;;;;0.65;0.65;;;10.30;99.90;;;;;;7399718;19;19928;-78
2023/05/25 02:59:28;;;;;;;0.00;0.00;;;10.40;99.90;;;;;;7399454;19;19939;-77
2023/05/25 03:01:57;;;;;;;0.00;0.00;;;10.30;99.90;;;;;;7398895;19;19926;-78
2023/05/25 03:04:25;;;;;;;0.00;0.00;;;10.30;99.90;;;;;;7398892;19;19933;-78
2023/05/25 03:06:55;;;;;;;0.70;0.45;;;10.20;99.90;;;;;;7401436;19;19926;-78
2023/05/25 03:09:24;;;;;;;0.00;0.00;;;10.20;99.90;;;;;;7399301;19;19923;-78
2023/05/25 03:11:53;;;;;;;0.00;0.00;;;10.10;99.90;;;;;;7397628;19;19994;-78
2023/05/25 03:14:24;;;;;;;0.00;0.00;;;10.20;99.90;;;;;;7400557;19;19919;-77
2023/05/25 03:16:53;;;;;;;0.00;0.00;;;10.10;99.90;;;;;;7400197;19;19929;-78
2023/05/25 03:19:22;;;;;;;0.00;0.00;;;10.10;99.90;;;;;;7401313;19;19978;-78
2023/05/25 03:21:51;;;;;;;0.00;0.00;;;10.00;99.90;;;;;;7400007;19;19927;-78
2023/05/25 03:24:20;;;;;;;1.02;1.02;;;10.00;99.90;;;;;;7396885;19;19919;-77
2023/05/25 03:26:49;;;;;;;0.00;0.00;;;10.10;99.90;;;;;;7402371;19;20356;-78
2023/05/25 03:29:18;;;;;;;0.00;0.00;;;10.10;99.90;;;;;;7400358;19;20369;-79
2023/05/25 03:31:49;;;;;;;0.10;0.10;;;10.00;99.90;;;;;;7400670;19;20382;-78
2023/05/25 03:34:18;;;;;;;0.00;0.00;;;10.00;99.90;;;;;;7400596;19;20400;-77
2023/05/25 03:36:47;;;;;;;0.00;0.00;;;10.10;99.90;;;;;;7400146;19;20307;-78
2023/05/25 03:39:16;;;;;;;0.52;0.25;;;10.00;99.90;;;;;;7399502;19;20355;-78
2023/05/25 03:41:45;;;;;;;0.43;0.43;;;10.00;99.90;;;;;;7402358;19;19918;-79
2023/05/25 03:44:14;;;;;;;0.00;0.00;;;10.10;99.90;;;;;;7400182;19;19927;-78
2023/05/25 03:46:43;;;;;;;0.35;0.32;;;10.10;99.90;;;;;;7402395;19;19922;-78
2023/05/25 03:49:15;;;;;;;0.00;0.00;;;10.00;99.90;;;;;;7404580;19;19974;-78
2023/05/25 03:51:44;;;;;;;0.00;0.00;;;10.00;99.90;;;;;;7401356;19;20006;-78
2023/05/25 03:54:13;;;;;;;0.08;0.08;;;10.50;99.90;;;;;;7399831;19;19922;-76
2023/05/25 03:56:42;;;;;;;0.00;0.00;;;10.10;99.90;;;;;;7400193;19;19974;-78
2023/05/25 03:59:12;;;;;;;0.95;0.85;;;10.10;99.90;;;;;;7399748;19;19923;-78
2023/05/25 04:01:41;;;;;;;0.00;0.00;;;10.10;99.90;;;;;;7400824;19;19918;-78
2023/05/25 04:04:10;;;;;;;0.00;0.00;;;10.20;99.90;;;;;;7399109;19;20323;-78
2023/05/25 04:06:44;;;;;;;0.00;0.00;;;10.30;99.90;;;;;;7399486;19;19998;-78
2023/05/25 04:09:14;;;;;;;0.00;0.00;;;10.00;99.90;;;;;;7399332;19;20337;-78
2023/05/25 04:11:43;;;;;;;0.00;0.00;;;10.00;99.90;;;;;;7398829;19;19978;-78
2023/05/25 04:14:12;;;;;;;0.00;0.00;;;10.10;99.90;;;;;;7398676;19;19945;-78
2023/05/25 04:16:41;;;;;;;0.00;0.00;;;10.30;99.90;;;;;;7398368;19;19930;-78
2023/05/25 04:19:10;;;;;;;0.08;0.08;;;10.30;99.90;;;;;;7397296;19;20365;-78
2023/05/25 04:21:42;;;;;;;0.00;0.00;;;10.20;99.90;;;;;;7398602;19;19943;-78
2023/05/25 04:24:11;;;;;;;0.00;0.00;;;10.10;99.90;;;;;;7398728;19;20002;-78
2023/05/25 04:26:40;;;;;;;1.05;0.98;;;10.40;99.90;;;;;;7397532;19;19986;-79
2023/05/25 04:29:10;;;;;;;0.00;0.00;;;10.30;99.90;;;;;;7397254;19;19914;-78
2023/05/25 04:31:39;;;;;;;0.00;0.00;;;10.40;99.90;;;;;;7397933;19;19945;-78
2023/05/25 04:34:08;;;;;;;0.95;0.30;;;9.10;99.90;;;;;;7394829;19;19919;-78
2023/05/25 04:36:41;;;;;;;0.00;0.00;;;10.40;99.90;;;;;;7399758;19;19960;-78
2023/05/25 04:39:12;;;;;;;0.15;0.15;;;10.60;99.90;;;;;;7399004;19;19941;-78
2023/05/25 04:41:41;;;;;;;0.10;0.10;;;10.50;99.90;;;;;;7395871;19;19919;-78
2023/05/25 04:44:12;;;;;;;0.00;0.00;;;10.40;99.90;;;;;;7398248;19;19922;-78
2023/05/25 04:46:43;;;;;;;0.00;0.00;;;10.40;99.90;;;;;;7396352;19;20348;-78
2023/05/25 04:49:15;;;;;;;0.32;0.32;;;10.60;99.90;;;;;;7397710;19;19990;-79
2023/05/25 04:51:44;;;;;;;0.00;0.00;;;10.60;99.90;;;;;;7397967;19;20359;-78
2023/05/25 04:54:16;;;;;;;0.00;0.00;;;10.60;99.90;;;;;;7396928;19;20316;-79
2023/05/25 04:56:46;;;;;;;0.28;0.28;;;10.50;99.90;;;;;;7404348;19;19978;-78
2023/05/25 04:59:16;;;;;;;0.00;0.00;;;10.70;99.90;;;;;;7402897;19;19947;-79
2023/05/25 05:01:45;;;;;;;0.00;0.00;;;10.70;99.90;;;;;;7405669;19;19970;-79
2023/05/25 05:04:15;;;;;;;0.00;0.00;;;10.70;99.90;;;;;;7403513;19;19931;-78
2023/05/25 05:06:44;;;;;;;0.10;0.10;;;10.70;99.90;;;;;;7403943;19;20388;-78
2023/05/25 05:09:15;;;;;;;0.00;0.00;;;10.70;99.90;;;;;;7404656;19;19926;-79
2023/05/25 05:11:44;;;;;;;0.00;0.00;;;10.90;99.90;;;;;;7404478;19;19919;-78
2023/05/25 05:14:13;;;;;;;0.00;0.00;;;10.80;99.90;;;;;;7405004;19;20783;-78
2023/05/25 05:16:42;;;;;;;0.28;0.28;;;10.90;99.90;;;;;;7404573;19;20014;-79
2023/05/25 05:19:11;;;;;;;0.00;0.00;;;10.90;99.90;;;;;;7403030;19;19922;-78
2023/05/25 05:21:40;;;;;;;0.00;0.00;;;10.90;99.90;;;;;;7404218;19;19926;-79
2023/05/25 05:24:10;;;;;;;0.00;0.00;;;11.00;99.90;;;;;;7404347;19;22491;-79
2023/05/25 05:26:41;;;;;;;0.22;0.22;;;11.20;99.90;;;;;;7404958;19;20377;-79
2023/05/25 05:29:10;;;;;;;0.38;0.38;;;11.10;99.90;;;;;;7402456;19;19919;-78
2023/05/25 05:31:40;;;;;;;1.95;1.08;;;11.30;99.90;;;;;;7400962;19;19930;-79
2023/05/25 05:34:09;;;;;;;0.80;0.55;;;11.20;99.90;;;;;;7404631;19;19931;-79
2023/05/25 05:36:37;;;;;;;0.00;0.00;;;11.20;99.90;;;;;;7405832;19;19982;-79
2023/05/25 05:39:06;;;;;;;0.00;0.00;;;11.60;99.90;;;;;;7404586;19;19985;-78
2023/05/25 05:41:35;;;;;;;0.05;0.05;;;11.60;99.90;;;;;;7413639;19;19946;-78
2023/05/25 05:44:07;;;;;;;0.20;0.20;;;11.60;99.90;;;;;;7408262;19;19930;-79
2023/05/25 05:46:36;;;;;;;0.00;0.00;;;11.70;99.90;;;;;;7398056;19;19931;-78
2023/05/25 05:49:05;;;;;;;0.00;0.00;;;11.70;99.90;;;;;;7404106;19;19937;-79
2023/05/25 05:51:34;;;;;;;0.00;0.00;;;11.70;99.90;;;;;;7403797;19;19918;-78
2023/05/25 05:54:04;;;;;;;0.17;0.17;;;11.70;99.90;;;;;;7402351;19;19922;-78
2023/05/25 05:56:33;;;;;;;0.00;0.00;;;11.70;99.90;;;;;;7401025;19;19954;-78
2023/05/25 05:59:02;;;;;;;0.00;0.00;;;11.80;99.90;;;;;;7398135;19;19915;-76
2023/05/25 06:01:35;;;;;;;0.43;0.43;;;11.90;99.90;;;;;;7400096;19;19948;-82
2023/05/25 06:04:04;;;;;;;0.00;0.00;;;11.80;99.90;;;;;;7405291;19;19919;-78
2023/05/25 06:06:34;;;;;;;0.73;0.47;;;11.80;99.90;;;;;;7400175;19;20259;-78
2023/05/25 06:09:05;;;;;;;0.00;0.00;;;12.10;99.90;;;;;;7400890;19;19926;-79
2023/05/25 06:11:35;;;;;;;0.00;0.00;;;11.80;99.90;;;;;;7403687;19;19925;-77
2023/05/25 06:14:05;;;;;;;0.57;0.57;;;11.90;99.90;;;;;;7402664;19;19927;-78
2023/05/25 06:16:41;;;;;;;0.00;0.00;;;11.90;99.90;;;;;;7403894;19;19934;-77
2023/05/25 06:19:10;;;;;;;0.00;0.00;;;12.00;99.90;;;;;;7402187;19;19961;-78
2023/05/25 06:21:39;;;;;;;0.28;0.28;;;11.90;99.90;;;;;;7398120;19;19919;-77
2023/05/25 06:24:09;;;;;;;0.00;0.00;;;12.10;99.90;;;;;;7396339;19;19947;-77
2023/05/25 06:26:40;;;;;;;0.00;0.00;;;13.90;99.90;;;;;;7399622;19;19923;-77
2023/05/25 06:29:09;;;;;;;0.38;0.38;;;12.20;99.90;;;;;;7401840;19;19928;-78
2023/05/25 06:31:41;;;;;;;0.22;0.22;;;12.10;99.90;;;;;;7400355;19;19914;-78
2023/05/25 06:34:10;;;;;;;3.88;0.15;;;12.20;99.90;;;;;;7402660;19;19943;-78
2023/05/25 06:36:39;;;;;;;0.00;0.00;;;12.20;99.90;;;;;;7402300;19;19922;-78
2023/05/25 06:39:08;;;;;;;0.00;0.00;;;12.10;99.90;;;;;;7399214;19;19948;-78
2023/05/25 06:41:39;;;;;;;0.45;0.38;;;12.10;99.90;;;;;;7402720;19;19915;-78
2023/05/25 06:44:08;;;;;;;0.00;0.00;;;12.30;99.90;;;;;;7401988;19;19931;-78
2023/05/25 06:46:41;;;;;;;0.00;0.00;;;12.20;99.90;;;;;;7401022;19;19926;-79
2023/05/25 06:49:10;;;;;;;0.00;0.00;;;12.40;99.90;;;;;;7399801;19;19923;-78
2023/05/25 06:51:39;;;;;;;0.00;0.00;;;12.40;99.90;;;;;;7402543;19;19958;-78
2023/05/25 06:54:08;;;;;;;0.00;0.00;;;12.50;99.90;;;;;;7403234;19;19923;-78
2023/05/25 06:56:37;;;;;;;0.00;0.00;;;12.30;99.90;;;;;;7403910;19;19978;-78
2023/05/25 06:59:06;;;;;;;0.00;0.00;;;12.40;99.90;;;;;;7402464;19;20760;-78
2023/05/25 07:01:36;;;;;;;0.10;0.10;;;12.40;99.90;;;;;;7401249;19;20286;-78
2023/05/25 07:04:08;;;;;;;0.00;0.00;;;12.50;99.90;;;;;;7401464;19;19933;-78
2023/05/25 07:06:36;;;;;;;0.43;0.43;;;12.60;99.90;;;;;;7400300;19;19915;-77
2023/05/25 07:09:06;;;;;;;0.03;0.03;;;12.70;99.90;;;;;;7400547;19;19922;-78
2023/05/25 07:11:35;;;;;;;8.20;0.65;;;12.50;99.90;;;;;;7396901;19;20211;-79
2023/05/25 07:14:04;;;;;;;0.25;0.25;;;12.50;99.90;;;;;;7380005;19;20016;-78
2023/05/25 07:16:33;;;;;;;0.30;0.30;;;12.70;99.90;;;;;;7365966;19;20015;-78
2023/05/25 07:19:02;;;;;;;0.88;0.63;;;12.70;99.90;;;;;;7369461;19;19922;-78
2023/05/25 07:21:35;;;;;;;0.00;0.00;;;12.20;99.90;;;;;;7374500;19;19926;-78
2023/05/25 07:24:04;;;;;;;1.65;1.55;;;12.50;99.90;;;;;;7375196;19;21170;-77
2023/05/25 07:26:33;;;;;;;0.22;0.22;;;12.40;99.90;;;;;;7374391;19;19978;-77
2023/05/25 07:29:02;;;;;;;0.03;0.03;;;12.60;99.90;;;;;;7374931;19;20284;-78
2023/05/25 07:31:31;;;;;;;0.10;0.10;;;12.60;99.90;;;;;;7380756;19;19923;-77
2023/05/25 07:34:00;;;;;;;0.00;0.00;;;12.40;99.90;;;;;;7368594;19;19938;-77
2023/05/25 07:36:29;;;;;;;0.00;0.00;;;12.70;99.90;;;;;;7371159;19;19986;-77
2023/05/25 07:39:04;;;;;;;0.00;0.00;;;12.70;99.90;;;;;;7370650;19;19914;-77
2023/05/25 07:41:33;;;;;;;0.00;0.00;;;12.70;99.90;;;;;;7372919;19;19930;-77
2023/05/25 07:44:02;;;;;;;0.00;0.00;;;12.90;99.90;;;;;;7372318;19;20291;-78
2023/05/25 07:46:31;;;;;;;0.00;0.00;;;12.90;99.90;;;;;;7370204;19;20637;-78
2023/05/25 07:49:02;;;;;;;2.35;1.65;;;12.90;99.90;;;;;;7392225;19;19927;-77
2023/05/25 07:51:31;;;;;;;0.00;0.00;;;13.00;99.90;;;;;;7396435;19;19926;-78
2023/05/25 07:54:00;;;;;;;0.00;0.00;;;13.10;99.90;;;;;;7399351;19;19982;-79
2023/05/25 07:56:32;;;;;;;1.05;0.95;;;13.10;99.90;;;;;;7399062;19;19923;-78
2023/05/25 07:59:01;;;;;;;0.00;0.00;;;13.00;99.90;;;;;;7397981;19;20275;-78
2023/05/25 08:01:30;;;;;;;0.00;0.00;;;13.10;99.90;;;;;;7398088;19;19919;-78
2023/05/25 08:04:00;;;;;;;0.00;0.00;;;13.20;99.90;;;;;;7400217;19;19939;-78
2023/05/25 08:06:29;;;;;;;0.00;0.00;;;13.00;99.90;;;;;;7395666;19;20002;-78
2023/05/25 08:08:58;;;;;;;0.43;0.43;;;13.30;99.90;;;;;;7396807;19;20753;-78
2023/05/25 08:11:27;;;;;;;0.00;0.00;;;13.20;99.90;;;;;;7397626;19;19926;-78
2023/05/25 08:13:59;;;;;;;0.00;0.00;;;13.20;99.90;;;;;;7395124;19;19922;-78
2023/05/25 08:16:28;;;;;;;0.88;0.55;;;13.30;99.90;;;;;;7400636;19;19929;-78
2023/05/25 08:19:00;;;;;;;0.00;0.00;;;13.40;99.90;;;;;;7399614;19;19911;-78
2023/05/25 08:21:29;;;;;;;0.00;0.00;;;13.30;99.90;;;;;;7399381;19;19939;-78
2023/05/25 08:23:58;;;;;;;0.38;0.38;;;13.10;99.90;;;;;;7400016;19;19951;-78
2023/05/25 08:26:27;;;;;;;0.00;0.00;;;13.20;99.90;;;;;;7396433;19;19922;-78
2023/05/25 08:28:59;;;;;;;0.00;0.00;;;13.20;99.90;;;;;;7397372;19;19994;-78
2023/05/25 08:31:28;;;;;;;0.00;0.00;;;13.50;99.90;;;;;;7406469;19;20272;-78
2023/05/25 08:33:57;;;;;;;4.85;0.98;;;13.70;99.90;;;;;;7404301;19;19926;-78
2023/05/25 08:36:27;;;;;;;0.43;0.25;;;13.90;99.90;;;;;;7405609;19;19926;-78
2023/05/25 08:38:56;;;;;;;0.15;0.15;;;13.80;99.90;;;;;;7405338;19;19934;-78
2023/05/25 08:41:25;;;;;;;0.00;0.00;;;14.10;99.90;;;;;;7405493;19;19926;-78
2023/05/25 08:43:54;;;;;;;2.20;0.95;;;14.20;99.90;;;;;;7404436;19;19922;-78
2023/05/25 08:46:32;;;;;;;0.10;0.10;;;14.20;99.90;;;;;;7401763;19;19926;-78
2023/05/25 08:49:06;;;;;;;0.05;0.05;;;14.40;99.90;;;;;;7404376;19;19938;-78
2023/05/25 08:51:38;;;;;;;9.20;1.55;;;14.50;99.90;;;;;;7400255;19;19923;-78
2023/05/25 08:54:10;;;;;;;0.20;0.20;;;14.50;99.90;;;;;;7403000;19;19919;-78
2023/05/25 08:56:45;;;;;;;0.10;0.10;;;16.00;99.90;;;;;;7404186;19;20277;-78
2023/05/25 08:59:30;;;;;;;0.05;0.05;;;14.30;99.90;;;;;;7403448;19;19925;-79
2023/05/25 09:02:10;;;;;;;0.40;0.40;;;14.20;99.90;;;;;;7404863;19;19947;-78
2023/05/25 09:04:41;;;;;;;1.65;0.70;;;14.20;99.90;;;;;;7406363;19;19922;-78
2023/05/25 09:07:10;;;;;;;0.55;0.55;;;14.40;99.90;;;;;;7404796;19;19922;-78
2023/05/25 09:09:40;;;;;;;0.40;0.40;;;14.40;99.90;;;;;;7408059;19;19932;-77
2023/05/25 09:12:10;;;;;;;0.00;0.00;;;14.60;99.90;;;;;;7407565;19;19928;-78
2023/05/25 09:14:44;;;;;;;0.00;0.00;;;14.60;99.90;;;;;;7405088;19;20285;-78
2023/05/25 09:17:17;;;;;;;0.47;0.20;;;14.50;99.90;;;;;;7403186;19;19947;-77
2023/05/25 09:19:47;;;;;;;1.75;0.80;;;14.50;99.90;;;;;;7405703;19;20006;-79
2023/05/25 09:22:16;;;;;;;0.00;0.00;;;14.60;99.90;;;;;;7403338;19;19915;-78
2023/05/25 09:24:45;;;;;;;0.00;0.00;;;14.60;99.90;;;;;;7403188;19;19943;-78
2023/05/25 09:27:16;;;;;;;0.52;0.52;;;14.90;99.90;;;;;;7401051;19;19981;-79
2023/05/25 09:29:45;;;;;;;0.22;0.22;;;15.20;99.90;;;;;;7400260;19;20242;-78
2023/05/25 09:32:17;;;;;;;0.00;0.00;;;15.40;99.90;;;;;;7403643;19;20665;-79
2023/05/25 09:34:46;;;;;;;0.00;0.00;;;15.30;99.90;;;;;;7404185;19;19919;-78
2023/05/25 09:37:17;;;;;;;0.00;0.00;;;14.60;99.90;;;;;;7396852;19;19981;-78
2023/05/25 09:39:46;;;;;;;0.70;0.43;;;15.30;99.90;;;;;;7401496;19;19923;-79
2023/05/25 09:42:15;;;;;;;0.13;0.13;;;15.20;99.90;;;;;;7391695;19;20773;-79
2023/05/25 09:44:45;;;;;;;0.85;0.60;;;15.10;99.90;;;;;;7305700;19;20006;-81
2023/05/25 09:47:17;;;;;;;0.00;0.00;;;15.50;99.90;;;;;;7400194;19;19946;-74
2023/05/25 09:54:28;;;;;;;0.80;0.80;;;;;;;;;;7419592;19;24421;-40
2023/05/25 09:56:58;;;;;;;;;;;16.40;99.90;;;;;;7383608;19;20862;-34
2023/05/25 09:59:28;;;;;;;0.00;0.00;;;17.50;99.90;;;;;;7340501;19;20823;-36
2023/05/25 10:01:59;;;;;;;0.25;0.20;;;18.20;99.90;;;;;;7431679;19;19970;-35
2023/05/25 10:06:41;;;;;;;8.03;1.70;;;18.90;99.90;;;;;;7332088;19;21298;-33
2023/05/25 10:09:13;;;;;;;;;;;19.30;99.90;;;;;;7390322;19;20872;-47
2023/05/25 10:12:24;;;;;;;;;;;19.60;99.90;;;;;;7352679;19;20627;-72
2023/05/25 10:14:54;;;;;;;;;;;19.20;99.90;;;;;;7396819;19;19923;-71
2023/05/25 10:17:24;;;;;;;;;;;18.40;99.90;;;;;;6911936;19;3009107;-72
2023/05/25 10:19:56;;;;;;;;;;;17.90;99.90;;;;;;6746257;19;5013176;-71
2023/05/25 10:22:28;;;;;;;;;;;17.50;99.90;;;;;;6505875;19;93435;-71
2023/05/25 10:28:47;;;;;;;4.07;1.80;;;17.00;99.90;;;;;;6442871;19;3708550;-41
2023/05/25 10:31:18;;;;;;;6.80;1.65;;;17.60;99.90;;;;;;6341141;19;5010652;-42
2023/05/25 10:33:48;;;;;;;4.63;1.52;;;18.20;99.90;;;;;;6561200;19;20294;-35
2023/05/25 10:36:19;;;;;;;6.75;2.13;;;19.10;99.90;;;;;;7339294;19;23006;-37
2023/05/25 10:38:49;;;;;;;4.22;1.40;;;19.20;99.90;;;;;;6859405;19;20258;-45
2023/05/25 10:41:18;;;;;;;4.93;1.35;;;19.80;99.90;;;;;;6577624;19;20015;-42
2023/05/25 10:44:28;;;;;;;3.45;1.40;;;20.20;99.90;;;;;;6509180;19;97501;-76
2023/05/25 10:46:58;;;;;;;3.58;1.20;;;20.30;99.90;;;;;;6292692;19;3009372;-73
2023/05/25 10:49:32;;;;;;;4.13;1.50;;;19.60;99.90;;;;;;6157326;19;19947;-71
2023/05/25 10:52:02;;;;;;;4.65;1.30;;;19.00;99.90;;;;;;6285096;19;19922;-79
2023/05/25 10:54:34;;;;;;;4.90;1.35;;;18.30;99.90;;;;;;6035194;19;19923;-73
2023/05/25 10:57:10;;;;;;;3.42;1.20;;;17.90;99.90;;;;;;5981349;19;19924;-72
2023/05/25 10:59:46;;;;;;;3.85;1.20;;;17.70;99.90;;;;;;5833663;19;19923;-75
2023/05/25 11:02:16;;;;;;;2.13;0.70;;;17.30;99.90;;;;;;7399335;19;20331;-77
2023/05/25 11:04:48;;;;;;;2.00;1.00;;;19.60;99.90;;;;;;7405003;19;20377;-74
2023/05/25 11:07:18;;;;;;;2.42;1.00;;;17.50;99.90;;;;;;7159449;19;19943;-78
2023/05/25 11:10:00;;;;;;;4.28;1.13;;;17.20;99.90;;;;;;7404552;19;19919;-74
2023/05/25 11:12:29;;;;;;;2.90;1.33;;;17.20;99.90;;;;;;7413869;19;19922;-74
2023/05/25 11:15:18;;;;;;;4.03;1.30;;;17.30;99.90;;;;;;7435163;19;19946;-74
2023/05/25 11:17:59;;;;;;;4.20;1.15;;;17.10;99.90;;;;;;7214925;19;19925;-74
2023/05/25 11:20:30;;;;;;;3.42;1.20;;;16.90;99.90;;;;;;7318907;19;201238;-74
2023/05/25 11:23:00;;;;;;;3.70;1.25;;;16.80;99.90;;;;;;7427833;19;20250;-81
2023/05/25 11:25:41;;;;;;;3.72;1.20;;;16.60;99.90;;;;;;7428634;19;19926;-74
2023/05/25 11:28:11;;;;;;;3.38;1.15;;;16.50;99.90;;;;;;7426062;19;19950;-74
2023/05/25 11:30:44;;;;;;;2.35;1.27;;;16.60;99.90;;;;;;7432724;19;19939;-74
2023/05/25 11:33:13;;;;;;;3.35;1.00;;;16.60;99.90;;;;;;7426602;19;19918;-74
2023/05/25 11:35:44;;;;;;;3.08;1.20;;;16.60;99.90;;;;;;7428693;19;20357;-73
2023/05/25 11:38:14;;;;;;;3.45;1.20;;;16.60;99.90;;;;;;7429395;19;19918;-74
2023/05/25 11:40:43;;;;;;;3.70;1.40;;;16.80;99.90;;;;;;7432506;19;19927;-75
2023/05/25 11:43:14;;;;;;;2.40;0.93;;;16.80;99.90;;;;;;7428307;19;19930;-74
2023/05/25 11:45:47;;;;;;;3.30;1.00;;;16.70;99.90;;;;;;7431000;19;19986;-74
2023/05/25 11:48:17;;;;;;;2.78;1.13;;;16.80;99.90;;;;;;7430613;19;20547;-74
2023/05/25 11:50:46;;;;;;;2.65;0.90;;;16.80;99.90;;;;;;7428185;19;19929;-74
2023/05/25 11:53:15;;;;;;;2.88;0.90;;;17.20;99.90;;;;;;7431606;19;19926;-74
2023/05/25 11:55:50;;;;;;;2.63;1.10;;;17.40;99.90;;;;;;7402995;19;19922;-73
2023/05/25 11:58:19;;;;;;;3.83;1.20;;;17.30;99.90;;;;;;7393788;19;19944;-73
2023/05/25 12:00:51;;;;;;;3.40;1.13;;;17.70;99.90;;;;;;7397754;19;20257;-73
2023/05/25 12:03:33;;;;;;;1.52;0.82;;;17.60;99.90;;;;;;7395359;19;19998;-74
2023/05/25 12:06:03;;;;;;;4.20;1.33;;;17.80;99.90;;;;;;7399387;19;20380;-74
2023/05/25 12:08:35;;;;;;;3.53;1.35;;;17.70;99.90;;;;;;7399511;19;19927;-73
2023/05/25 12:11:04;;;;;;;2.47;1.02;;;19.90;99.90;;;;;;7400397;19;19942;-74
2023/05/25 12:13:33;;;;;;;3.88;1.17;;;18.10;99.90;;;;;;7398125;19;19926;-74
2023/05/25 12:16:05;;;;;;;2.05;0.82;;;18.20;99.90;;;;;;7402707;19;19939;-74
2023/05/25 12:18:33;;;;;;;;;;;18.10;99.90;;;;;;7403722;19;19918;-73
2023/05/25 12:21:06;;;;;;;2.72;1.25;;;18.40;99.90;;;;;;7403664;19;20313;-73
2023/05/25 12:23:36;;;;;;;3.55;1.10;;;18.60;99.90;;;;;;7400413;19;20006;-73
2023/05/25 12:26:12;;;;;;;2.78;1.20;;;18.50;99.90;;;;;;7400291;19;19927;-73
2023/05/25 12:28:41;;;;;;;3.42;1.25;;;18.50;99.90;;;;;;7401758;19;20325;-73
2023/05/25 12:31:26;;;;;;;3.10;1.10;;;19.00;99.90;;;;;;7402610;19;20321;-73
2023/05/25 12:34:06;;;;;;;3.75;1.45;;;18.90;99.90;;;;;;7402752;19;19965;-73
2023/05/25 12:36:43;;;;;;;2.55;1.17;;;19.00;99.90;;;;;;7401297;19;19975;-73
2023/05/25 12:39:14;;;;;;;3.85;1.15;;;19.10;99.90;;;;;;7401478;19;19978;-73
2023/05/25 12:41:47;;;;;;;5.30;1.15;;;19.50;99.90;;;;;;7403236;19;20367;-72
2023/05/25 12:44:24;;;;;;;3.38;1.20;;;19.30;99.90;;;;;;7400940;19;19978;-73
2023/05/25 12:46:57;;;;;;;3.38;1.30;;;19.30;99.90;;;;;;7401389;19;19942;-73
2023/05/25 12:49:28;;;;;;;3.63;1.40;;;19.00;99.90;;;;;;7402286;19;20364;-73
2023/05/25 12:51:57;;;;;;;2.70;0.95;;;19.00;99.90;;;;;;7401505;19;19929;-73
2023/05/25 12:54:44;;;;;;;2.85;1.20;;;19.10;99.90;;;;;;7402015;19;19918;-74
2023/05/25 12:57:15;;;;;;;5.97;1.00;;;19.10;99.90;;;;;;7399042;19;19922;-73
2023/05/25 12:59:45;;;;;;;3.05;1.02;;;19.20;99.90;;;;;;7400088;19;19923;-73
2023/05/25 13:02:17;;;;;;;2.28;1.10;;;19.20;99.90;;;;;;7399437;19;19990;-73
2023/05/25 13:04:46;;;;;;;2.55;1.00;;;19.60;99.90;;;;;;7398662;19;19986;-73
2023/05/25 13:07:15;;;;;;;2.63;1.02;;;19.60;99.90;;;;;;7399405;19;19936;-73
2023/05/25 13:09:43;;;;;;;2.60;1.23;;;19.40;99.90;;;;;;7402306;19;19922;-73
2023/05/25 13:12:12;;;;;;;3.28;1.10;;;19.60;99.90;;;;;;7402379;19;19998;-73
2023/05/25 13:14:41;;;;;;;4.07;1.05;;;19.30;99.90;;;;;;7400966;19;19930;-73
2023/05/25 13:17:10;;;;;;;3.80;1.27;;;19.50;99.90;;;;;;7400563;19;19947;-73